Station info - map view · info · telemetry · weather · raw · status · beacons · messages · bulletins · browse · moving · my account
Callsign, ship name or locator: Clear       
It is possible to search using wildcards (*?) after a prefix. Example: OH*
APRS station KE8DOL - show graphs
Map loading...
Comment: MT-RTG
Mic-E message: In service
Last status: MicroTrak FA v1.42
Location: 46°33.04' N 87°27.42' W - locator EN66GN52DD - show map - static map
1.0 miles Southwest bearing 246° from Trowbridge Park, Marquette County, Michigan, United States [?]
3.0 miles West bearing 280° from Marquette, Marquette County, Michigan, United States
8.2 miles Northeast bearing 64° from Negaunee, Marquette County, Michigan, United States
58.7 miles North bearing 341° from Escanaba, Delta County, Michigan, United States
Last position: 2017-05-29 20:10:48 EDT (10h57m ago)
2017-05-29 20:10:48 EDT local time at Trowbridge Park, United States [?]
Altitude: 955 ft
Course:
Last telemetry: 2017-05-29 20:09:17 EDT (10h58m ago) – show telemetry
Ch 1: 467, Ch 2: 617, Ch 3: 0, Ch 4: 0, Ch 5: 0
 1     2     3     4     5     6     7     8 
Device: Byonics: TinyTrak3 (tracker)
Last path: KE8DOL>T6SS0S via K8MDH-1,WIDE1*,WIDE2-1,qAR,KE8CPN (good)
Positions stored: 31158
Packet rate: 163 seconds between packets on average during 7813 seconds.
Stations near current position of KE8DOL - show more
callsign distance last heard - EDT      callsign distance last heard - EDT
DW05702.3 miles 128°2017-05-30 07:02:31 EW79332.7 miles 105°2017-05-30 07:07:34
KE8CPE-53.0 miles 95°2017-04-30 13:38:28 KC8KLM3.0 miles 227°2017-05-30 07:05:38
KB0P-93.0 miles 250°2017-05-13 10:50:28 EW12983.2 miles 94°2017-05-30 07:00:46
CW43314.5 miles 253°2017-05-25 15:43:01 K8LOD-35.4 miles 285°2017-05-30 07:06:00
KC8ULE6.1 miles 139°2017-05-28 16:33:29 KE0CAA-910.5 miles 249°2017-05-27 17:35:14
DW323513.1 miles 250°2017-05-30 06:54:40 N8PUM-913.2 miles 250°2017-05-27 17:06:32
N8PUM-713.7 miles 249°2017-05-25 23:30:26 KSAW13.9 miles 168°2017-05-05 12:33:00
KC8VMV-915.3 miles 105°2017-05-30 07:02:16 KG5FIF-915.7 miles 302°2017-05-29 20:51:28
CW911416.2 miles 325°2017-05-30 07:02:40 N8PUM-323.5 miles 260°2017-05-17 17:28:04
EW194428.9 miles 120°2017-05-30 06:54:37 N8PUM-1529.8 miles 301°2017-05-30 05:39:32
Stations which heard KE8DOL directly on radio –
callsign pkts first heard - EDT last heard longest (tx => rx) longest at - EDT
N9MEA-12 206 2017-05-01 15:49:54 2017-05-29 16:58:42 EN55DH > EN55EX 45.5 miles 5° 2017-05-15 19:19:21
W9LTA-10 20 2017-05-03 18:36:50 2017-05-29 14:17:05 EN54DS > EN54FA 51.9 miles 173° 2017-05-11 17:37:32
K8LOD-3 873 2017-05-01 13:08:19 2017-05-29 20:09:17 EN56XE > EN66FN 34.6 miles 40° 2017-05-26 22:24:46
N9MEA-11 22 2017-05-01 19:44:42 2017-05-15 17:54:12 EN54DS > EN54FN 15.3 miles 160° 2017-05-14 17:17:35
N9MEA-14 174 2017-05-01 16:29:49 2017-05-29 16:24:45 EN55IU > EN55AQ 34.7 miles 253° 2017-05-08 17:17:52
KA9BAB-11 4 2017-05-01 18:03:36 2017-05-15 17:58:12 EN55EI > EN44UX 40.9 miles 231° 2017-05-01 18:03:36
N9MEA-8 2 2017-05-01 17:27:41 2017-05-23 20:35:14 EN54XV > EN55NF 47.9 miles 299° 2017-05-23 20:35:14
KB9RWX-11 4 2017-05-01 19:36:37 2017-05-14 18:01:02 EN54DO > EN54CJ 14.9 miles 200° 2017-05-14 18:01:02
KD8GBH-1 1 2017-05-14 22:56:37 2017-05-14 22:56:37 EN56RN > EN57RD 40.4 miles 4° 2017-05-14 22:56:37
KA9BAB-7 10 2017-05-17 17:08:19 2017-05-26 19:17:30 EN54XN > EN54WA 38.2 miles 189° 2017-05-22 10:13:13
KG9B-8 9 2017-05-01 18:49:28 2017-05-01 19:54:39 EN54DS > EN54FL 21.2 miles 162° 2017-05-01 19:54:39
WX9GRB 2 2017-05-19 19:16:43 2017-05-23 19:20:21 EN54XN > EN54WL 5.7 miles 213° 2017-05-23 19:20:21
K8MDH-1 313 2017-05-01 12:50:22 2017-05-29 20:10:48 EN56JM > EN57VI 76.5 miles 38° 2017-05-14 22:18:42
W8CDZ-2 4 2017-05-01 23:06:15 2017-05-29 10:23:18 EN56RM > EN57SF 47.0 miles 6° 2017-05-07 22:40:53
N9UWY-1 2 2017-05-01 19:38:42 2017-05-10 19:09:45 EN54DO > EN44SN 38.4 miles 267° 2017-05-10 19:09:45
KA9BAB-5 60 2017-05-17 16:16:29 2017-05-26 20:16:59 EN55XD > EN54XJ 50.8 miles 180° 2017-05-22 09:21:35
KA9BAB-3 58 2017-05-17 15:48:30 2017-05-26 20:50:58 EN65AM > EN55XC 29.5 miles 187° 2017-05-22 08:51:39
KA9BAB-4 103 2017-05-17 14:56:37 2017-05-26 21:42:53 EN55XA > EN55XL 30.7 miles 4° 2017-05-25 21:07:01
KF9TS-3 8 2017-05-17 17:00:19 2017-05-26 20:03:00 EN54XM > EN54RS 29.4 miles 303° 2017-05-23 19:57:07
AB9PJ-4 7 2017-05-17 15:46:30 2017-05-23 18:52:26 EN54XX > EN65FE 27.3 miles 58° 2017-05-23 18:52:26
KC9NW-1 9 2017-05-01 18:35:33 2017-05-08 18:43:43 EN55EB > EN54EV 11.4 miles 180° 2017-05-07 18:06:44
AA9NV 1 2017-05-10 18:38:08 2017-05-10 18:38:08 EN54DO > EN54KI 34.6 miles 118° 2017-05-10 18:38:08
KB8ZXE-1 110 2017-05-17 16:20:26 2017-05-26 20:08:58 EN54XW > EN54XJ 38.0 miles 178° 2017-05-26 18:12:39
N7EKY-1 25 2017-05-01 15:45:54 2017-05-15 21:01:29 EN56JK > EN56JD 19.9 miles 179° 2017-05-11 15:07:47
KE8CPN 37 2017-05-01 14:30:04 2017-05-29 18:18:31 EN56PM > EN56ST 25.4 miles 29° 2017-05-01 22:58:15
N8PUM-3 120 2017-05-01 13:52:11 2017-05-17 14:26:39 EN56TN > EN66AL 20.9 miles 107° 2017-05-01 14:22:48
W9SM-1 383 2017-05-01 17:59:35 2017-05-29 15:44:47 EN55EN > EN55GB 35.7 miles 165° 2017-05-11 16:41:37
W9VRC-10 66 2017-05-01 15:37:54 2017-05-15 20:55:29 EN56JE > EN56JD 3.2 miles 176° 2017-05-07 21:41:00
N8LVQ-10 1 2017-05-07 16:07:08 2017-05-07 16:07:08 EN56JD > EN56QC 27.2 miles 100° 2017-05-07 16:07:08
KD9FUR 8 2017-05-29 14:00:48 2017-05-29 14:54:52 EN54DS > EN44WQ 24.0 miles 256° 2017-05-29 14:00:48

Only position packets which were originated by the station are shown here. The range statistics show some extra long hops, because some digipeaters do not correctly add themselves to the digipeater path. Please check the raw packets.
About this site
This page shows real-time information collected from the Automatic Position Reporting System Internet network (APRS-IS). APRS is used by amateur (ham) radio operators to transmit real-time position information, weather data, telemetry and messages over the radio. A vehicle equipped with a GPS receiver, a VHF transmitter or HF transceiver and a small computer device called a tracker transmits it's location, speed and course in a small data packet, which is then received by a nearby iGate receiving site which forwards the packet on the Internet. Systems connected to the Internet can send information on the APRS-IS without a radio transmitter, or collect and display information transmitted anywhere in the world.
FAQ · Blog · Discussion group · Linking to aprs.fi · AIS sites · Service status · Database statistics · Advertising on aprs.fi · Technical details · API · Change log · Planned changes · Credits and thanks · Terms Of Service · iPhone/iPad APRS